Wetterdaten: Juni 2017
Datum Temp Feuchte Luftdruck Regen Wind Richtung Sonnenschein UV Solar Windben
01.06.2017 16,8 C 68 % 1020,3 hPa 0,0 l/m 0,9 km/h N-NW 13,00 h 3,8 UV-I 490 W/m 2,4 km/h
02.06.2017 19,8 C 66 % 1015,5 hPa 0,0 l/m 1,6 km/h SO 9,58 h 3,2 UV-I 408 W/m 4,8 km/h
03.06.2017 20,3 C 77 % 1010,4 hPa 0,0 l/m 0,0 km/h S 3,25 h 2,3 UV-I 259 W/m 0,0 km/h
04.06.2017 14,6 C 85 % 1013,2 hPa 4,2 l/m 0,2 km/h N-NW 3,67 h 2,9 UV-I 284 W/m 1,6 km/h
05.06.2017 15,8 C 73 % 1011,4 hPa 0,0 l/m 0,0 km/h S 10,17 h 3,2 UV-I 421 W/m 0,0 km/h
06.06.2017 14,2 C 74 % 1002,0 hPa 0,0 l/m 10,5 km/h S 4,50 h 1,6 UV-I 230 W/m 18,1 km/h
07.06.2017 11,0 C 83 % 1011,4 hPa 1,6 l/m 10,8 km/h S 1,58 h 1,7 UV-I 179 W/m 16,9 km/h
08.06.2017 16,7 C 71 % 1014,8 hPa 0,8 l/m 7,4 km/h S 6,83 h 2,9 UV-I 293 W/m 15,3 km/h
09.06.2017 15,3 C 76 % 1012,5 hPa 6,6 l/m 1,7 km/h S 4,00 h 1,7 UV-I 219 W/m 6,0 km/h
10.06.2017 17,2 C 72 % 1019,4 hPa 0,2 l/m 0,2 km/h S-SW 8,32 h 3,6 UV-I 391 W/m 1,6 km/h
11.06.2017 20,0 C 80 % 1013,9 hPa 0,6 l/m 3,5 km/h S 6,50 h 4,0 UV-I 337 W/m 5,6 km/h
12.06.2017 15,9 C 66 % 1014,3 hPa 0,0 l/m 2,4 km/h W 1,42 h 2,4 UV-I 226 W/m 11,7 km/h
13.06.2017 15,5 C 73 % 1017,8 hPa 0,0 l/m 1,2 km/h NW 1,42 h 2,1 UV-I 192 W/m 9,3 km/h
14.06.2017 17,6 C 68 % 1018,0 hPa 0,0 l/m 0,0 km/h N 11,75 h 3,9 UV-I 460 W/m 0,0 km/h
15.06.2017 18,9 C 80 % 1012,9 hPa 17,6 l/m 2,5 km/h S-SO 8,17 h 3,9 UV-I 368 W/m 5,2 km/h
16.06.2017 15,3 C 77 % 1018,5 hPa 0,2 l/m 2,6 km/h N-NW 1,50 h 2,0 UV-I 173 W/m 8,0 km/h
17.06.2017 14,2 C 93 % 1024,2 hPa 0,2 l/m 0,2 km/h W 0,00 h 1,1 UV-I 93 W/m 2,0 km/h
18.06.2017 19,5 C 80 % 1023,6 hPa 0,0 l/m 0,0 km/h NO 5,33 h 3,2 UV-I 309 W/m 0,0 km/h
19.06.2017 22,0 C 70 % 1018,3 hPa 0,0 l/m 1,5 km/h SO 13,08 h 4,1 UV-I 480 W/m 3,6 km/h
20.06.2017 21,7 C 72 % 1016,3 hPa 0,0 l/m 0,5 km/h N-NO 10,17 h 3,4 UV-I 398 W/m 6,0 km/h
21.06.2017 20,5 C 67 % 1015,8 hPa 0,0 l/m 0,0 km/h N-NO 13,00 h 4,0 UV-I 460 W/m 1,2 km/h
22.06.2017 23,7 C 75 % 1008,0 hPa 8,2 l/m 13,1 km/h S-SO 8,58 h 3,3 UV-I 318 W/m 16,9 km/h
23.06.2017 19,5 C 73 % 1012,5 hPa 0,0 l/m 3,8 km/h W-NW 4,60 h 2,5 UV-I 291 W/m 12,9 km/h
24.06.2017 17,0 C 82 % 1012,6 hPa 1,0 l/m 2,4 km/h S-SW 0,83 h 2,3 UV-I 173 W/m 10,1 km/h
25.06.2017 16,2 C 90 % 1010,3 hPa 3,2 l/m 3,5 km/h S-SW 0,83 h 2,1 UV-I 132 W/m 9,7 km/h
26.06.2017 16,3 C 75 % 1011,4 hPa 1,4 l/m 3,4 km/h N-NW 6,83 h 3,5 UV-I 329 W/m 10,4 km/h
27.06.2017 17,0 C 80 % 1007,6 hPa 0,2 l/m 0,6 km/h O-SO 3,92 h 2,7 UV-I 236 W/m 2,8 km/h
28.06.2017 17,0 C 91 % 996,7 hPa 13,4 l/m 0,3 km/h SO 1,83 h 1,1 UV-I 131 W/m 4,0 km/h
29.06.2017 16,3 C 95 % 996,9 hPa 0,6 l/m 0,5 km/h W-NW 0,17 h 1,4 UV-I 153 W/m 4,4 km/h
30.06.2017 16,9 C 77 % 1002,6 hPa 1,8 l/m 1,1 km/h S-SW 1,83 h 2,0 UV-I 212 W/m 7,6 km/h
Min-Datum 23.06.17 23.06.17 29.06.17 17 Tage 01.06.17 - - - - 01.06.17
Min-Zeit 00:05 00:05 06:30 - 00:00 - - - - 00:00
Minimum 0,0 C 0 % 994,0 hPa - 0,0 km/h - - - - 0,0 km/h
Max-Datum 22.06.17 29.06.17 18.06.17 15.06.17 07.06.17 - 19.06.17 18.06.17 18.06.17 07.06.17
Max-Zeit 14:25 06:20 10:00 19:20 13:20 - 20:10 12:25 13:35 11:35
Maximum 33,3 C 100 % 1025,6 hPa 17,6 l/m 33,8 km/h
S
- 13,00 h 9,2 UV-I 1178 W/m 56,3 km/h
S
Durchschnitt 17,4 C 77 % 1012,8 hPa #61,8 l/m 2,5 km/h S #166:40 h 2,7 UV-I 288 W/m 6,6 km/h

Durchschnitt Minimum Temp.11,2 C
Durchschnitt Maximum Temp.22,7 C